首页
METAR-TAF:

METAR-TAF

机场 :

登海尔德, 荷兰

纬度: 52-55N, 经度: 004-47E, 海拔: 0米

当前天气观测

该预报发布于14分钟前的22:25 UTC
风速18节,风向西南,在西之间变化
温度 14°C
湿度 88%
气压 1010 hPa
能见度10公里或以上
阴天层高于3500英尺

METAR: EHKD 292225Z AUTO 23018KT 190V280 9999 OVC035 14/12 Q1010 BLU

时间: 23:39 (22:39 UTC)

预报

该预报发布于5小时和36分钟前的17:03 UTC
预报有效从29日的 18点(UTC)到 30日的 06点(UTC)
风速15节,风向
能見度: 6000
多云层高于800英尺
阴天层高于2000英尺
小雨, 毛毛雨
成为
从 29日的 19点(UTC)到 29日的 21点(UTC)
风速20节,风向西南,有时为32节阵风
短暂存在
从 29日的 18点(UTC)到 30日的 06点(UTC)
能見度: 4000
多云层高于600英尺
阴天层高于1200英尺
毛毛雨, 雨
几率 40% :
短暂存在
从 29日的 22点(UTC)到 30日的 06点(UTC)
能見度: 2000
散云层高于300英尺
多云层高于500英尺
阴天层高于800英尺
毛毛雨, 雨

TAF: EHKD 291703Z 2918/3006 19015KT 6000 -RADZ BKN008 OVC020 BECMG 2919/2921 23020G32KT TEMPO 2918/3006 4000 DZRA BKN006 OVC012 PROB40 TEMPO 2922/3006 2000 DZRA SCT003 BKN005 OVC008

超过4000个机场的气象观测和天气预报(METAR&TAF报告)。

可查询的气象台以黄色和红色小点在地图上表示。

将鼠标移到小点上方,可查看气象台名称。

然后点击查看天气观测和预报。

如需切换地图:点击带黑十字的绿色按钮放大地图;点击带横线的绿色按钮缩小地图;或者点击绿色箭头查看邻近地区的地图。


METAR-TAF: